CheckWX is a tool to help pilots better visualize weather data.  It is not intended as a substitute for an official pre-flight weather briefing.

10:39:26 UTC

CZPC METAR
Pincher Creek Airport
Pincher Creek, Canada
Current

39 mins ago

CZPC 171000Z AUTO 26008KT 9SM CLR 09/04 A2978 RMK SLP074 DENSITY ALT 4200FT
Observed
Sep-17 @ 10:00 UTC
Wind
  • 260° at 8 KTS
Visibility
9 SM
Flight Rules
VFR
Cloud Levels
  • Clear skies
Temperature
C / 48°F
Dewpoint
C / 39°F
Humidity
71%
Altimeter
29.78" Hg
Pressure
1008.42 hPa
Previous

2 hours ago

CZPC 170900Z AUTO 26007KT 9SM CLR 09/05 A2977 RMK SLP071 DENSITY ALT 4200FT
Observed
Sep-17 @ 09:00 UTC
Wind
  • 260° at 7 KTS
Visibility
9 SM
Flight Rules
VFR
Cloud Levels
  • Clear skies
Temperature
C / 48°F
Dewpoint
C / 41°F
Humidity
76%
Altimeter
29.77" Hg
Pressure
1008.12 hPa
Previous

3 hours ago

CZPC 170800Z AUTO 25011KT 9SM CLR 10/05 A2975 RMK SLP062 DENSITY ALT 4400FT
Observed
Sep-17 @ 08:00 UTC
Wind
  • 250° at 11 KTS
Visibility
9 SM
Flight Rules
VFR
Cloud Levels
  • Clear skies
Temperature
10°C / 50°F
Dewpoint
C / 41°F
Humidity
71%
Altimeter
29.75" Hg
Pressure
1007.42 hPa